Time;durP1;ratioP1;P1;durP2;ratioP2;P2;SDS_P1;SDS_P2;PMS_P1;PMS_P2;Temp;Humidity;BMP_temperature;BMP_pressure;BME280_temperature;BME280_humidity;BME280_pressure;Samples;Min_cycle;Max_cycle;Signal;HPM_P1;HPM_P2
2022/06/02 00:02:08;;;;;;;1.00;0.90;;;;;;;15.72;52.91;98291.66;5102796;28;20579;-75
2022/06/02 00:04:40;;;;;;;1.30;1.00;;;;;;;15.71;52.90;98299.78;5112840;28;20216;-75
2022/06/02 00:07:11;;;;;;;1.20;1.00;;;;;;;15.70;53.09;98292.75;5111501;28;20600;-75
2022/06/02 00:10:00;;;;;;;2.83;1.17;;;;;;;15.62;53.58;98296.06;5112556;28;20214;-74
2022/06/02 00:12:32;;;;;;;1.77;1.17;;;;;;;15.59;53.45;98301.66;5112325;28;20255;-74
2022/06/02 00:15:09;;;;;;;1.10;1.00;;;;;;;15.54;53.32;98298.56;5111131;28;20233;-74
2022/06/02 00:17:43;;;;;;;2.30;1.00;;;;;;;15.61;53.62;98304.19;5112093;28;20213;-75
2022/06/02 00:20:16;;;;;;;2.60;1.00;;;;;;;15.57;53.41;98295.63;5111919;28;20293;-73
2022/06/02 00:22:52;;;;;;;1.07;1.00;;;;;;;15.55;53.92;98300.25;5111265;28;20221;-76
2022/06/02 00:25:28;;;;;;;1.20;1.10;;;;;;;15.51;53.94;98298.00;5094984;28;20222;-73
2022/06/02 00:28:02;;;;;;;1.53;1.03;;;;;;;15.65;53.74;98294.97;5094766;28;20210;-74
2022/06/02 00:30:34;;;;;;;3.33;1.53;;;;;;;15.62;53.62;98295.22;5104080;28;20577;-74
2022/06/02 00:33:15;;;;;;;1.57;1.20;;;;;;;15.59;53.54;98296.31;5109752;28;20214;-75
2022/06/02 00:35:47;;;;;;;2.37;1.27;;;;;;;15.56;53.66;98295.75;5094757;28;20210;-73
2022/06/02 00:38:19;;;;;;;1.37;1.27;;;;;;;15.54;53.81;98292.38;5094449;28;20679;-75
2022/06/02 00:40:46;;;;;;;2.60;1.13;;;;;;;15.55;53.81;98291.41;5110838;28;20214;-73
2022/06/02 00:43:38;;;;;;;2.13;1.20;;;;;;;15.50;53.94;98293.63;5112444;28;20206;-73
2022/06/02 00:46:12;;;;;;;1.20;1.10;;;;;;;15.41;54.40;98297.09;5111567;28;20313;-73
2022/06/02 00:48:51;;;;;;;1.07;1.00;;;;;;;15.45;54.42;98294.03;5109644;28;20224;-74
2022/06/02 00:51:29;;;;;;;1.27;1.10;;;;;;;15.40;54.87;98298.91;5094686;28;20305;-73
2022/06/02 00:59:51;;;;;;;1.87;1.17;;;;;;;15.29;55.49;98298.97;5108111;28;20589;-75
2022/06/02 01:02:18;;;;;;;2.17;1.40;;;;;;;15.28;55.48;98291.91;5115820;28;20210;-73
2022/06/02 01:04:46;;;;;;;2.10;1.33;;;;;;;15.26;56.03;98298.34;5116533;28;20225;-73
2022/06/02 01:07:27;;;;;;;1.53;1.20;;;;;;;15.18;56.27;98293.69;5116746;28;20220;-73
2022/06/02 01:10:15;;;;;;;1.20;1.10;;;;;;;15.14;56.11;98310.03;5115615;28;20233;-75
2022/06/02 01:13:11;;;;;;;1.20;1.07;;;;;;;15.07;56.66;98311.53;5098743;28;20570;-75
2022/06/02 01:15:49;;;;;;;1.37;1.27;;;;;;;14.99;57.02;98306.03;5098562;28;20218;-73
2022/06/02 01:18:25;;;;;;;1.43;1.10;;;;;;;14.97;56.69;98302.66;5115983;28;20209;-73
2022/06/02 01:21:09;;;;;;;1.63;1.40;;;;;;;14.96;56.88;98306.31;5116032;28;20263;-73
2022/06/02 01:24:07;;;;;;;2.33;1.10;;;;;;;14.79;58.07;98314.84;5115255;28;20233;-74
2022/06/02 01:26:52;;;;;;;1.67;1.10;;;;;;;14.86;57.77;98321.34;5065089;28;20684;-74
2022/06/02 01:29:54;;;;;;;1.40;1.20;;;;;;;14.81;57.94;98318.22;5097896;28;20676;-73
2022/06/02 01:32:28;;;;;;;1.67;1.10;;;;;;;14.82;58.03;98325.22;5098199;28;20244;-73
2022/06/02 01:35:03;;;;;;;1.20;1.10;;;;;;;14.74;58.49;98322.34;5097875;28;20723;-73
2022/06/02 01:37:41;;;;;;;1.67;1.17;;;;;;;14.68;58.69;98317.53;5098014;28;20218;-73
2022/06/02 01:40:22;;;;;;;1.60;1.30;;;;;;;14.62;58.91;98323.38;5098201;28;20210;-74
2022/06/02 01:42:56;;;;;;;1.40;1.20;;;;;;;14.56;59.41;98334.50;5098008;28;20218;-74
2022/06/02 01:45:36;;;;;;;1.80;1.30;;;;;;;14.47;60.31;98329.94;5099387;28;20244;-73
2022/06/02 01:48:11;;;;;;;2.70;1.10;;;;;;;14.44;60.53;98330.19;5097888;28;20210;-74
2022/06/02 01:50:48;;;;;;;1.80;1.17;;;;;;;14.40;60.65;98326.94;5097700;28;20224;-74
2022/06/02 01:53:27;;;;;;;2.07;1.30;;;;;;;14.41;60.69;98330.44;5098770;28;20221;-74
2022/06/02 01:56:25;;;;;;;1.47;1.10;;;;;;;14.34;61.13;98335.41;5097023;28;20669;-74
2022/06/02 01:59:07;;;;;;;2.97;1.10;;;;;;;14.36;61.34;98336.13;5081558;28;20661;-74
2022/06/02 02:01:42;;;;;;;1.30;1.10;;;;;;;14.34;61.18;98334.56;5100494;28;20221;-74
2022/06/02 02:04:41;;;;;;;2.03;1.10;;;;;;;14.25;61.48;98337.97;5105761;28;20213;-74
2022/06/02 02:07:14;;;;;;;1.83;1.30;;;;;;;14.24;61.84;98334.47;5098881;28;20268;-74
2022/06/02 02:09:55;;;;;;;1.93;1.10;;;;;;;14.26;62.27;98339.66;5097655;28;20219;-74
2022/06/02 02:12:31;;;;;;;1.30;0.93;;;;;;;14.24;62.11;98336.28;5096578;28;20207;-74
2022/06/02 02:15:13;;;;;;;1.67;1.27;;;;;;;14.31;61.60;98340.97;5098530;28;20237;-74
2022/06/02 02:18:06;;;;;;;1.40;1.30;;;;;;;14.41;61.38;98347.25;5096986;28;20317;-74
2022/06/02 02:20:44;;;;;;;1.07;0.97;;;;;;;14.44;61.38;98347.00;5097392;28;20210;-74
2022/06/02 02:23:19;;;;;;;2.40;1.50;;;;;;;14.40;61.61;98350.00;5115060;28;20213;-70
2022/06/02 02:25:53;;;;;;;1.10;1.07;;;;;;;14.45;61.17;98347.84;5114810;28;20599;-70
2022/06/02 02:28:31;;;;;;;1.83;1.43;;;;;;;14.45;61.18;98355.81;5113039;28;20224;-71
2022/06/02 02:31:11;;;;;;;1.57;1.40;;;;;;;14.37;61.36;98351.09;5103284;28;20211;-70
2022/06/02 02:33:46;;;;;;;1.83;1.33;;;;;;;14.40;61.30;98355.34;5097126;28;20215;-71
2022/06/02 02:36:25;;;;;;;1.97;1.40;;;;;;;14.28;61.43;98346.53;5097172;28;20302;-70
2022/06/02 02:38:59;;;;;;;1.43;1.10;;;;;;;14.20;62.24;98358.75;5113840;28;20210;-70
2022/06/02 02:41:34;;;;;;;1.57;1.30;;;;;;;14.14;62.44;98362.72;5114602;28;20579;-69
2022/06/02 02:44:06;;;;;;;2.60;1.20;;;;;;;14.08;62.61;98365.03;5114361;28;20260;-72
2022/06/02 02:46:37;;;;;;;1.10;1.00;;;;;;;14.07;63.05;98358.88;5112805;28;20332;-70
2022/06/02 02:49:12;;;;;;;1.63;1.20;;;;;;;14.16;62.75;98343.97;5114242;28;20214;-70
2022/06/02 02:51:49;;;;;;;1.80;1.20;;;;;;;14.22;62.37;98357.66;5113850;28;20217;-71
2022/06/02 02:54:24;;;;;;;2.33;1.17;;;;;;;14.24;62.16;98360.22;5110804;28;20236;-72
2022/06/02 02:56:58;;;;;;;2.60;1.40;;;;;;;14.25;61.58;98356.59;5114152;28;20209;-69
2022/06/02 02:59:39;;;;;;;1.30;1.20;;;;;;;14.20;61.71;98358.75;5114157;28;20214;-69
2022/06/02 03:02:15;;;;;;;1.40;1.30;;;;;;;14.20;61.23;98359.63;5112547;28;20220;-70
2022/06/02 03:04:51;;;;;;;1.50;1.30;;;;;;;14.15;61.58;98360.91;5114172;28;20214;-71
2022/06/02 03:07:20;;;;;;;2.03;1.37;;;;;;;14.13;61.28;98357.53;5113847;28;20205;-70
2022/06/02 03:10:05;;;;;;;1.53;1.33;;;;;;;14.05;61.66;98358.13;5113801;28;20210;-70
2022/06/02 03:12:57;;;;;;;1.30;1.20;;;;;;;14.01;61.53;98361.16;5096262;28;20215;-70
2022/06/02 03:15:30;;;;;;;1.40;1.30;;;;;;;13.88;62.14;98366.59;5096185;28;20572;-70
2022/06/02 03:18:19;;;;;;;1.40;1.30;;;;;;;13.74;62.92;98361.53;5098367;28;20214;-70
2022/06/02 03:20:56;;;;;;;1.03;1.03;;;;;;;13.71;63.67;98366.22;5104838;28;20218;-71
2022/06/02 03:23:38;;;;;;;1.30;1.20;;;;;;;13.78;63.56;98367.44;5095967;28;20218;-70
2022/06/02 03:26:09;;;;;;;1.83;1.30;;;;;;;13.85;63.43;98363.31;5113513;28;20210;-70
2022/06/02 03:28:49;;;;;;;3.70;1.47;;;;;;;13.99;62.92;98366.59;5113586;28;20214;-71
2022/06/02 03:31:25;;;;;;;1.90;1.47;;;;;;;13.99;63.30;98368.44;5099983;28;20683;-70
2022/06/02 03:34:02;;;;;;;1.73;1.30;;;;;;;14.07;62.86;98379.28;5112402;28;20217;-70
2022/06/02 03:36:54;;;;;;;2.00;1.20;;;;;;;14.13;62.75;98373.47;5113564;28;20214;-70
2022/06/02 03:39:33;;;;;;;2.07;1.30;;;;;;;14.16;62.94;98373.22;5112528;28;20217;-70
2022/06/02 03:42:15;;;;;;;1.33;1.23;;;;;;;14.23;62.66;98379.81;5095623;28;20210;-70
2022/06/02 03:44:55;;;;;;;1.27;1.17;;;;;;;14.28;62.54;98388.22;5095770;28;20251;-71
2022/06/02 03:47:41;;;;;;;1.30;1.20;;;;;;;14.23;63.40;98385.13;5095343;28;20218;-70
2022/06/02 03:50:24;;;;;;;2.03;1.20;;;;;;;14.12;63.77;98383.25;5095603;28;20221;-70
2022/06/02 03:53:08;;;;;;;1.40;1.30;;;;;;;13.95;64.77;98382.91;5095398;28;20222;-71
2022/06/02 03:55:48;;;;;;;1.57;1.47;;;;;;;13.83;65.34;98384.72;5112894;28;20257;-70
2022/06/02 03:58:30;;;;;;;1.97;1.20;;;;;;;13.89;64.92;98381.59;5112679;28;20210;-70
2022/06/02 04:01:01;;;;;;;1.33;1.10;;;;;;;13.99;64.17;98387.03;5112458;28;20224;-70
2022/06/02 04:03:41;;;;;;;1.43;1.27;;;;;;;14.07;63.31;98385.47;5112546;28;20225;-70
2022/06/02 04:06:27;;;;;;;1.43;1.20;;;;;;;14.06;63.08;98388.22;5113010;28;20224;-69
2022/06/02 04:09:04;;;;;;;1.50;1.40;;;;;;;14.07;63.20;98382.81;5111703;28;20225;-70
2022/06/02 04:15:10;;;;;;;2.10;1.43;;;;;;;13.91;64.19;98384.09;5034093;28;20259;-70
2022/06/02 04:17:45;;;;;;;2.23;1.60;;;;;;;13.88;64.85;98390.50;5032736;28;20216;-70
2022/06/02 04:20:35;;;;;;;1.40;1.27;;;;;;;13.84;65.06;98390.88;5068689;28;20218;-70
2022/06/02 04:23:16;;;;;;;1.17;1.13;;;;;;;13.80;65.51;98387.59;5111710;28;20340;-70
2022/06/02 04:25:49;;;;;;;1.63;1.30;;;;;;;13.78;65.84;98394.00;5112538;28;20221;-70
2022/06/02 04:28:26;;;;;;;1.47;1.37;;;;;;;13.67;66.64;98386.00;5112330;28;20209;-71
2022/06/02 04:31:06;;;;;;;1.67;1.27;;;;;;;13.65;66.53;98385.31;5101106;28;20213;-70
2022/06/02 04:33:35;;;;;;;1.60;1.50;;;;;;;13.68;66.91;98387.72;5100166;28;20217;-70
2022/06/02 04:36:12;;;;;;;1.40;1.30;;;;;;;13.68;67.15;98403.66;5100626;28;20234;-70
2022/06/02 04:38:50;;;;;;;2.67;1.50;;;;;;;13.75;66.85;98403.06;5094468;28;20571;-70
2022/06/02 04:41:24;;;;;;;1.50;1.37;;;;;;;13.87;66.07;98399.44;5094425;28;20214;-70
2022/06/02 04:44:02;;;;;;;2.27;1.43;;;;;;;14.01;65.18;98401.88;5094623;28;20245;-70
2022/06/02 04:46:41;;;;;;;1.50;1.40;;;;;;;14.07;64.37;98403.19;5096052;28;20205;-70
2022/06/02 04:49:15;;;;;;;1.50;1.40;;;;;;;14.21;63.91;98402.97;5094697;28;20210;-70
2022/06/02 04:51:51;;;;;;;2.70;1.30;;;;;;;14.40;63.33;98412.03;5094564;28;20213;-70
2022/06/02 04:54:28;;;;;;;2.63;1.50;;;;;;;14.66;62.46;98404.63;5095521;28;20219;-70
2022/06/02 04:57:01;;;;;;;1.40;1.30;;;;;;;14.83;60.29;98401.41;5094479;28;20221;-71
2022/06/02 04:59:39;;;;;;;2.40;1.80;;;;;;;14.91;59.85;98399.00;5094585;28;20214;-70
2022/06/02 05:02:13;;;;;;;1.60;1.50;;;;;;;15.27;58.62;98401.25;5095674;28;20222;-69
2022/06/02 05:04:51;;;;;;;1.40;1.30;;;;;;;15.89;55.89;98399.44;5092813;28;20214;-69
2022/06/02 05:07:26;;;;;;;2.90;1.67;;;;;;;16.57;52.11;98403.97;5094460;28;20261;-70
2022/06/02 05:10:02;;;;;;;1.77;1.67;;;;;;;16.87;50.96;98401.22;5095450;28;20240;-69
2022/06/02 05:12:39;;;;;;;1.70;1.60;;;;;;;16.99;51.22;98405.44;5094664;28;20210;-70
2022/06/02 05:15:16;;;;;;;1.77;1.30;;;;;;;17.46;50.45;98404.66;5094042;28;20234;-70
2022/06/02 05:17:58;;;;;;;2.10;1.50;;;;;;;18.49;47.03;98417.91;5094959;28;20680;-70
2022/06/02 05:20:44;;;;;;;2.23;1.50;;;;;;;19.41;44.60;98409.56;5094601;28;20210;-70
2022/06/02 05:23:36;;;;;;;1.83;1.53;;;;;;;20.38;42.71;98409.28;5094228;28;20214;-70
2022/06/02 05:26:30;;;;;;;2.40;1.57;;;;;;;21.22;41.20;98427.03;5111184;28;20214;-71
2022/06/02 05:29:34;;;;;;;2.23;1.30;;;;;;;21.36;40.30;98415.66;5108337;28;20218;-69
2022/06/02 05:32:25;;;;;;;1.97;1.40;;;;;;;20.89;40.80;98413.69;5092457;28;20237;-69
2022/06/02 05:35:16;;;;;;;1.80;1.47;;;;;;;21.34;40.04;98417.66;5090583;28;20720;-69
2022/06/02 05:38:00;;;;;;;2.33;1.60;;;;;;;21.56;39.36;98419.69;5110033;28;20712;-69
2022/06/02 05:40:33;;;;;;;1.40;1.30;;;;;;;21.65;39.10;98418.66;5111416;28;20591;-70
2022/06/02 05:43:15;;;;;;;2.87;1.40;;;;;;;21.69;39.94;98430.81;5111568;28;20211;-69
2022/06/02 05:46:03;;;;;;;1.73;1.40;;;;;;;20.79;40.54;98429.09;5112798;28;20249;-70
2022/06/02 05:48:45;;;;;;;2.10;1.43;;;;;;;20.17;42.04;98438.31;5115484;28;20214;-69
2022/06/02 05:51:21;;;;;;;1.50;1.20;;;;;;;19.94;42.75;98431.75;5101616;28;20214;-69
2022/06/02 05:54:04;;;;;;;2.47;1.63;;;;;;;19.86;41.71;98445.13;5097599;28;20210;-69
2022/06/02 05:56:42;;;;;;;1.37;1.23;;;;;;;20.31;41.74;98443.09;5092126;28;20248;-68
2022/06/02 05:59:29;;;;;;;2.33;1.60;;;;;;;21.12;39.86;98442.50;5098038;28;20220;-68
2022/06/02 06:02:10;;;;;;;1.47;1.37;;;;;;;21.88;38.09;98441.25;5096703;28;20226;-68
2022/06/02 06:05:02;;;;;;;1.57;1.47;;;;;;;22.36;37.93;98435.78;5096232;28;20210;-70
2022/06/02 06:07:37;;;;;;;2.47;1.60;;;;;;;23.14;36.59;98437.53;5094079;28;20211;-70
2022/06/02 06:10:08;;;;;;;1.53;1.30;;;;;;;23.84;35.96;98441.78;5097680;28;20210;-68
2022/06/02 06:12:55;;;;;;;3.23;1.47;;;;;;;24.21;34.42;98435.59;5097368;28;20215;-69
2022/06/02 06:15:35;;;;;;;1.37;1.27;;;;;;;24.46;33.35;98426.19;5096259;28;20245;-69
2022/06/02 06:18:10;;;;;;;3.20;2.03;;;;;;;24.20;33.21;98437.44;5094687;28;20229;-69
2022/06/02 06:20:51;;;;;;;2.57;1.50;;;;;;;24.19;33.37;98440.34;5097943;28;20214;-69
2022/06/02 06:23:53;;;;;;;1.43;1.33;;;;;;;24.53;33.18;98444.19;5095346;28;20210;-69
2022/06/02 06:26:34;;;;;;;3.93;1.60;;;;;;;24.86;32.47;98453.63;5097026;28;20221;-69
2022/06/02 06:29:13;;;;;;;1.53;1.40;;;;;;;24.94;31.77;98444.59;5096948;28;20579;-69
2022/06/02 06:31:51;;;;;;;2.70;1.43;;;;;;;25.14;31.83;98437.53;5113267;28;20213;-69
2022/06/02 06:34:31;;;;;;;1.80;1.70;;;;;;;25.29;31.97;98450.03;5100960;28;20575;-69
2022/06/02 06:37:29;;;;;;;2.50;1.67;;;;;;;25.25;32.50;98453.31;5096886;28;20699;-69
2022/06/02 06:40:05;;;;;;;21.10;3.97;;;;;;;24.95;33.16;98460.63;5094691;28;20255;-69
2022/06/02 06:42:55;;;;;;;48.20;14.40;;;;;;;25.06;33.47;98451.19;5098370;28;20232;-69
2022/06/02 06:45:29;;;;;;;3.30;2.30;;;;;;;24.96;32.35;98456.88;5097266;28;20604;-69
2022/06/02 06:48:01;;;;;;;6.00;1.60;;;;;;;24.55;33.06;98447.53;5096999;28;20254;-68
2022/06/02 06:50:39;;;;;;;4.07;1.80;;;;;;;24.69;34.01;98454.00;5096190;28;20214;-68
2022/06/02 06:53:32;;;;;;;1.93;1.80;;;;;;;24.46;33.46;98448.66;5096814;28;20210;-69
2022/06/02 06:56:06;;;;;;;2.20;1.80;;;;;;;23.43;34.76;98448.53;5097084;28;20273;-69
2022/06/02 06:58:49;;;;;;;2.77;2.37;;;;;;;22.48;35.95;98456.00;5096068;28;20206;-70
2022/06/02 07:01:24;;;;;;;3.00;1.80;;;;;;;22.33;36.94;98452.31;5095332;28;20700;-69
2022/06/02 07:04:01;;;;;;;2.03;1.73;;;;;;;22.19;37.19;98444.91;5105011;28;20209;-69
2022/06/02 07:06:37;;;;;;;2.60;2.13;;;;;;;21.16;39.54;98449.19;5096541;28;20211;-69
2022/06/02 07:09:13;;;;;;;1.87;1.60;;;;;;;20.25;41.35;98449.09;5096469;28;20579;-70
2022/06/02 07:14:40;;;;;;;2.67;2.33;;;;;;;19.15;43.95;98464.84;5096148;28;20260;-70
2022/06/02 07:17:16;;;;;;;3.10;2.10;;;;;;;18.64;44.50;98461.91;5095331;28;20240;-70
2022/06/02 07:19:52;;;;;;;3.23;2.20;;;;;;;18.41;46.23;98462.47;5097469;28;20218;-72
2022/06/02 07:22:33;;;;;;;4.60;2.33;;;;;;;18.29;47.50;98459.06;5095861;28;20218;-69
2022/06/02 07:25:13;;;;;;;8.70;3.00;;;;;;;18.35;46.84;98469.22;5096040;28;20261;-70
2022/06/02 07:27:49;;;;;;;2.57;1.80;;;;;;;18.44;46.04;98464.81;5097351;28;20578;-70
2022/06/02 07:30:25;;;;;;;22.17;7.10;;;;;;;18.52;45.80;98454.25;5100844;28;20206;-70
2022/06/02 07:33:21;;;;;;;26.87;8.23;;;;;;;18.65;45.68;98460.91;5103290;28;20214;-70
2022/06/02 07:36:14;;;;;;;23.57;3.60;;;;;;;18.77;46.07;98449.03;5112699;28;20234;-70
2022/06/02 07:39:08;;;;;;;3.70;1.73;;;;;;;18.88;45.82;98451.50;5113410;28;20214;-70
2022/06/02 07:41:50;;;;;;;4.63;1.70;;;;;;;19.09;45.50;98460.09;5110166;28;20222;-70
2022/06/02 07:44:43;;;;;;;3.33;2.10;;;;;;;19.08;44.58;98457.59;5113199;28;20238;-70
2022/06/02 07:47:37;;;;;;;61.17;8.90;;;;;;;19.06;45.02;98455.06;5112500;28;20218;-70
2022/06/02 07:50:11;;;;;;;4.50;2.13;;;;;;;19.13;45.44;98456.13;5095720;28;20219;-72
2022/06/02 07:52:48;;;;;;;2.13;1.80;;;;;;;19.23;44.66;98456.97;5095310;28;20625;-70
2022/06/02 07:55:26;;;;;;;1.93;1.80;;;;;;;19.31;44.11;98454.34;5096357;28;20221;-71
2022/06/02 07:58:05;;;;;;;2.80;1.80;;;;;;;19.27;44.15;98452.97;5095386;28;20581;-69
2022/06/02 08:00:38;;;;;;;2.50;1.93;;;;;;;19.32;44.40;98453.34;5095132;28;20221;-70
2022/06/02 08:03:41;;;;;;;2.93;1.53;;;;;;;19.29;45.24;98450.13;5096782;28;20214;-70
2022/06/02 08:06:13;;;;;;;18.47;6.30;;;;;;;19.40;45.28;98449.91;5095502;28;20214;-69
2022/06/02 08:08:46;;;;;;;3.60;2.60;;;;;;;19.61;43.87;98456.66;5092657;28;20215;-72
2022/06/02 08:11:33;;;;;;;2.90;1.80;;;;;;;19.58;43.63;98453.44;5112019;28;20296;-69
2022/06/02 08:14:12;;;;;;;1.97;1.50;;;;;;;19.37;43.41;98459.09;5113005;28;20210;-70
2022/06/02 08:16:50;;;;;;;1.83;1.57;;;;;;;19.53;43.90;98448.53;5112122;28;20245;-71
2022/06/02 08:19:30;;;;;;;3.00;1.40;;;;;;;19.54;44.30;98455.59;5101655;28;20231;-71
2022/06/02 08:22:00;;;;;;;1.60;1.50;;;;;;;19.56;44.39;98458.13;5094962;28;20214;-70
2022/06/02 08:24:38;;;;;;;2.20;1.57;;;;;;;19.72;43.66;98464.47;5094958;28;20707;-70
2022/06/02 08:27:33;;;;;;;2.50;1.90;;;;;;;19.87;43.16;98468.25;5094929;28;20214;-71
2022/06/02 08:30:09;;;;;;;1.53;1.43;;;;;;;20.01;43.30;98451.63;5100054;28;20217;-70
2022/06/02 08:32:52;;;;;;;4.33;2.23;;;;;;;20.05;42.87;98449.47;5110947;28;20570;-70
2022/06/02 08:35:24;;;;;;;1.93;1.83;;;;;;;20.20;42.16;98451.44;5094732;28;20207;-70
2022/06/02 08:38:06;;;;;;;1.67;1.57;;;;;;;20.19;41.22;98457.78;5094555;28;20703;-69
2022/06/02 08:41:31;;;;;;;1.93;1.40;;;;;;;19.97;42.63;98462.81;5096132;28;20210;-69
2022/06/02 08:44:26;;;;;;;1.77;1.50;;;;;;;19.99;42.77;98461.66;5094609;28;20295;-71
2022/06/02 08:47:21;;;;;;;3.30;1.50;;;;;;;20.16;42.62;98455.44;5095037;28;20260;-70
2022/06/02 08:50:12;;;;;;;1.83;1.40;;;;;;;20.27;41.83;98454.31;5094574;28;20214;-70
2022/06/02 08:53:31;;;;;;;2.97;1.60;;;;;;;20.27;41.62;98455.19;5094594;28;20223;-70
2022/06/02 08:56:17;;;;;;;2.40;1.47;;;;;;;20.25;41.21;98451.78;5010839;28;20244;-70
2022/06/02 08:59:29;;;;;;;2.27;1.30;;;;;;;20.27;41.92;98457.00;5093490;28;20691;-70
2022/06/02 09:02:38;;;;;;;1.70;1.30;;;;;;;20.49;43.01;98453.78;5095342;28;20305;-70
2022/06/02 09:05:42;;;;;;;1.30;1.20;;;;;;;20.72;42.46;98455.75;5094098;28;20206;-70
2022/06/02 09:08:35;;;;;;;1.90;1.30;;;;;;;21.00;41.89;98462.63;5110502;28;20215;-68
2022/06/02 09:11:28;;;;;;;2.40;1.20;;;;;;;21.15;41.90;98457.47;5108907;28;20213;-70
2022/06/02 09:14:11;;;;;;;1.40;1.30;;;;;;;21.24;40.18;98453.75;5106371;28;20212;-69
2022/06/02 09:16:55;;;;;;;2.60;1.60;;;;;;;21.20;40.43;98461.31;5111116;28;20241;-69
2022/06/02 09:19:35;;;;;;;2.63;1.60;;;;;;;21.22;40.82;98453.91;5106190;28;20259;-69
2022/06/02 09:22:19;;;;;;;1.90;1.23;;;;;;;21.18;40.87;98449.91;5103018;28;20210;-69
2022/06/02 09:24:51;;;;;;;1.40;1.30;;;;;;;21.33;41.92;98459.00;5103130;28;20221;-69
2022/06/02 09:27:47;;;;;;;1.57;1.47;;;;;;;21.45;41.76;98446.91;5104365;28;20217;-69
2022/06/02 09:30:19;;;;;;;1.97;1.30;;;;;;;21.71;42.31;98447.63;5080592;28;20569;-69
2022/06/02 09:36:21;;;;;;;2.20;1.47;;;;;;;22.17;40.19;98452.31;5101985;28;20253;-69
2022/06/02 09:38:59;;;;;;;2.00;1.40;;;;;;;22.29;39.19;98442.03;5105076;28;20221;-70
2022/06/02 09:41:40;;;;;;;2.20;1.50;;;;;;;22.19;39.59;98446.78;5102274;28;20214;-71
2022/06/02 09:44:18;;;;;;;1.80;1.40;;;;;;;22.03;38.98;98455.72;5102620;28;20250;-69
2022/06/02 09:47:08;;;;;;;1.60;1.50;;;;;;;21.63;39.57;98447.59;5106973;28;20226;-70
2022/06/02 09:50:10;;;;;;;2.07;1.53;;;;;;;21.68;39.91;98450.66;5102661;28;20215;-70
2022/06/02 09:52:58;;;;;;;1.60;1.40;;;;;;;21.72;40.31;98446.66;5104974;28;20648;-70
2022/06/02 09:55:38;;;;;;;2.73;1.50;;;;;;;21.95;39.62;98447.63;5102963;28;20586;-70
2022/06/02 09:58:16;;;;;;;1.60;1.50;;;;;;;22.17;39.32;98452.31;5102487;28;20718;-70
2022/06/02 10:01:04;;;;;;;1.57;1.47;;;;;;;22.29;39.93;98453.66;5106341;28;20252;-70
2022/06/02 10:03:58;;;;;;;1.37;1.27;;;;;;;22.59;38.86;98457.47;5102683;28;20217;-71
2022/06/02 10:06:58;;;;;;;2.33;1.40;;;;;;;22.78;38.31;98451.69;5106518;28;20238;-70
2022/06/02 10:09:37;;;;;;;3.00;1.40;;;;;;;22.75;37.85;98446.66;5102691;28;20211;-71
2022/06/02 10:15:20;;;;;;;2.70;1.50;;;;;;;22.44;39.39;98443.06;5102701;28;20337;-70
2022/06/02 10:18:07;;;;;;;1.93;1.50;;;;;;;22.62;39.25;98436.41;5101303;28;20237;-70
2022/06/02 10:21:10;;;;;;;1.63;1.40;;;;;;;22.81;40.02;98436.00;5105288;28;20214;-70
2022/06/02 10:24:15;;;;;;;1.70;1.60;;;;;;;22.76;38.47;98421.38;5099181;28;20211;-70
2022/06/02 10:26:57;;;;;;;1.63;1.53;;;;;;;22.84;38.38;98427.56;5108902;28;20221;-71
2022/06/02 10:30:03;;;;;;;3.33;1.60;;;;;;;22.82;39.08;98424.22;5109898;28;20210;-70
2022/06/02 10:33:08;;;;;;;2.20;1.30;;;;;;;23.00;37.96;98424.81;5106676;28;20679;-71
2022/06/02 10:36:08;;;;;;;2.23;1.60;;;;;;;22.93;38.68;98425.69;5098860;28;20210;-71
2022/06/02 10:38:42;;;;;;;2.20;1.67;;;;;;;22.85;38.79;98421.16;5109283;28;20244;-71
2022/06/02 10:41:46;;;;;;;2.80;1.47;;;;;;;22.85;38.99;98414.94;5109610;28;20205;-70
2022/06/02 10:44:17;;;;;;;1.73;1.63;;;;;;;22.82;38.00;98416.13;5105210;28;20246;-70
2022/06/02 10:47:23;;;;;;;1.70;1.50;;;;;;;22.53;37.97;98421.31;5109384;28;20218;-70
2022/06/02 10:50:00;;;;;;;2.27;1.37;;;;;;;22.49;38.28;98422.66;5105836;28;20214;-70
2022/06/02 10:53:11;;;;;;;2.07;1.40;;;;;;;22.27;38.54;98422.53;5101840;28;20225;-70
2022/06/02 10:56:09;;;;;;;1.50;1.40;;;;;;;22.24;39.16;98421.00;5105283;28;20680;-70
2022/06/02 10:59:19;;;;;;;1.70;1.40;;;;;;;22.19;39.42;98422.53;5094229;28;20210;-70
2022/06/02 11:02:17;;;;;;;2.27;1.40;;;;;;;22.17;39.19;98409.25;5105757;28;20215;-70
2022/06/02 11:05:16;;;;;;;1.40;1.30;;;;;;;22.40;39.48;98412.91;5101437;28;20207;-70
2022/06/02 11:08:34;;;;;;;2.67;1.40;;;;;;;22.44;38.30;98403.47;5105925;28;20267;-71
2022/06/02 11:11:35;;;;;;;1.80;1.57;;;;;;;22.40;39.24;98404.81;5088929;28;20221;-71
2022/06/02 11:14:45;;;;;;;1.80;1.30;;;;;;;22.62;39.87;98396.00;5105272;28;20570;-71
2022/06/02 11:17:50;;;;;;;1.83;1.30;;;;;;;22.83;38.25;98393.56;5097551;28;20238;-70
2022/06/02 11:20:37;;;;;;;1.67;1.30;;;;;;;22.72;38.76;98404.72;5100896;28;20211;-71
2022/06/02 11:23:30;;;;;;;2.73;1.50;;;;;;;22.73;38.58;98395.63;5104525;28;20210;-70
2022/06/02 11:26:27;;;;;;;1.20;1.13;;;;;;;22.72;39.25;98388.56;5101099;28;20229;-71
2022/06/02 11:29:27;;;;;;;2.27;1.70;;;;;;;22.59;37.93;98392.81;5104549;28;20215;-71
2022/06/02 11:32:13;;;;;;;2.03;1.50;;;;;;;22.67;38.86;98390.94;5101067;28;20207;-70
2022/06/02 11:35:18;;;;;;;1.20;1.10;;;;;;;22.81;39.06;98392.88;5102532;28;20225;-71
2022/06/02 11:38:02;;;;;;;1.67;1.43;;;;;;;22.99;38.50;98382.66;5022614;28;20809;-71
2022/06/02 11:40:51;;;;;;;2.50;1.80;;;;;;;23.16;38.18;98389.69;5101381;28;20677;-71
2022/06/02 11:43:24;;;;;;;2.40;1.40;;;;;;;23.24;37.88;98381.56;5102594;28;20225;-70
2022/06/02 11:46:27;;;;;;;2.30;1.40;;;;;;;23.27;38.29;98377.63;5100329;28;20702;-71
2022/06/02 11:49:23;;;;;;;2.03;1.30;;;;;;;23.61;37.33;98376.22;5104104;28;20221;-71
2022/06/02 11:52:08;;;;;;;1.37;1.27;;;;;;;23.47;37.21;98368.88;5108125;28;20237;-71
2022/06/02 11:54:59;;;;;;;1.33;1.20;;;;;;;23.37;37.30;98368.31;5104036;28;20214;-71
2022/06/02 11:57:45;;;;;;;1.50;1.40;;;;;;;23.58;37.24;98360.38;5100040;28;20704;-71
2022/06/02 12:00:36;;;;;;;1.30;1.20;;;;;;;23.95;37.41;98352.28;5101601;28;20219;-71
2022/06/02 12:03:22;;;;;;;2.20;1.43;;;;;;;24.35;36.46;98348.31;5099513;28;20241;-71
2022/06/02 12:06:45;;;;;;;3.53;1.50;;;;;;;24.28;35.97;98363.59;5100208;28;20214;-71
2022/06/02 12:09:41;;;;;;;1.57;1.30;;;;;;;24.12;36.91;98356.50;5024529;28;20213;-70
2022/06/02 12:12:28;;;;;;;1.50;1.40;;;;;;;24.31;36.65;98363.22;5020188;28;20316;-70
2022/06/02 12:15:13;;;;;;;2.50;1.60;;;;;;;24.46;36.21;98361.34;5081341;28;20218;-71
2022/06/02 12:17:59;;;;;;;1.53;1.40;;;;;;;24.35;36.56;98362.66;5099819;28;20238;-70
2022/06/02 12:20:48;;;;;;;3.43;1.50;;;;;;;24.24;36.12;98367.66;5103565;28;20215;-70
2022/06/02 12:23:45;;;;;;;1.83;1.33;;;;;;;24.32;36.73;98365.72;5107761;28;20221;-70
2022/06/02 12:26:22;;;;;;;1.40;1.30;;;;;;;24.64;35.83;98376.16;5103951;28;20241;-70
2022/06/02 12:29:03;;;;;;;2.13;1.30;;;;;;;24.66;36.10;98371.44;5099128;28;20280;-70
2022/06/02 12:32:15;;;;;;;1.33;1.23;;;;;;;24.80;36.77;98354.34;5104579;28;20210;-71
2022/06/02 12:35:23;;;;;;;1.63;1.53;;;;;;;25.01;35.84;98351.69;5099855;28;20211;-71
2022/06/02 12:38:13;;;;;;;3.13;1.50;;;;;;;25.11;34.83;98345.97;5103457;28;20230;-71
2022/06/02 12:40:55;;;;;;;1.83;1.27;;;;;;;25.14;35.27;98351.84;5099767;28;20237;-71
2022/06/02 12:44:02;;;;;;;1.43;1.33;;;;;;;25.06;35.34;98337.59;5100531;28;20233;-70
2022/06/02 12:47:05;;;;;;;2.03;1.50;;;;;;;24.95;35.08;98341.63;5099658;28;20217;-70
2022/06/02 12:50:03;;;;;;;2.07;1.60;;;;;;;24.83;35.55;98345.84;5102469;28;20218;-70
2022/06/02 12:52:54;;;;;;;1.43;1.30;;;;;;;24.85;35.30;98343.78;5097375;28;20215;-69
2022/06/02 12:55:41;;;;;;;1.40;1.30;;;;;;;24.99;36.55;98347.50;5097732;28;20245;-70
2022/06/02 12:58:42;;;;;;;1.60;1.50;;;;;;;25.44;35.46;98347.16;5099499;28;20284;-70
2022/06/02 13:01:20;;;;;;;1.37;1.20;;;;;;;25.36;35.20;98342.69;5098167;28;20220;-70
2022/06/02 13:04:14;;;;;;;2.67;1.40;;;;;;;25.53;34.40;98341.41;5104397;28;20214;-70
2022/06/02 13:07:10;;;;;;;2.37;1.50;;;;;;;25.24;35.14;98346.94;5096911;28;20217;-70
2022/06/02 13:09:57;;;;;;;1.47;1.27;;;;;;;25.20;35.74;98344.81;5099103;28;20613;-70
2022/06/02 13:12:54;;;;;;;1.50;1.40;;;;;;;25.36;34.82;98345.41;5103193;28;20214;-71